Time;durP1;ratioP1;P1;durP2;ratioP2;P2;SDS_P1;SDS_P2;PMS_P1;PMS_P2;Temp;Humidity;BMP_temperature;BMP_pressure;BME280_temperature;BME280_humidity;BME280_pressure;Samples;Min_cycle;Max_cycle;Signal;HPM_P1;HPM_P2
2023/01/12 00:01:40;;;;;;;14.00;3.78;;;9.90;99.90;;;;;;5053856;28;20024;-67
2023/01/12 00:04:06;;;;;;;15.02;2.58;;;10.00;99.90;;;;;;5050720;28;20040;-67
2023/01/12 00:06:32;;;;;;;19.90;3.58;;;9.90;99.90;;;;;;5048901;28;20078;-67
2023/01/12 00:09:01;;;;;;;11.88;3.03;;;9.90;99.90;;;;;;5050116;28;20033;-66
2023/01/12 00:11:27;;;;;;;21.88;3.70;;;9.90;99.90;;;;;;5056597;28;20048;-67
2023/01/12 00:13:52;;;;;;;29.35;3.65;;;10.00;99.90;;;;;;5052747;28;20067;-67
2023/01/12 00:16:39;;;;;;;16.55;3.42;;;10.00;99.90;;;;;;5052469;28;20031;-67
2023/01/12 00:19:11;;;;;;;11.88;2.90;;;10.00;99.90;;;;;;5052108;28;20428;-66
2023/01/12 00:22:13;;;;;;;12.02;2.90;;;9.90;99.90;;;;;;5051588;28;20029;-67
2023/01/12 00:24:42;;;;;;;11.20;3.63;;;9.90;99.90;;;;;;5054510;28;20059;-67
2023/01/12 00:27:10;;;;;;;22.77;4.25;;;10.00;99.90;;;;;;5059308;28;20047;-67
2023/01/12 00:29:36;;;;;;;19.17;3.50;;;10.00;99.90;;;;;;5054062;28;20032;-67
2023/01/12 00:32:03;;;;;;;15.35;2.92;;;10.10;99.90;;;;;;5055702;28;20060;-67
2023/01/12 00:34:29;;;;;;;17.45;3.45;;;10.00;99.90;;;;;;5053419;28;20062;-67
2023/01/12 00:36:55;;;;;;;16.05;3.40;;;10.00;99.90;;;;;;5058817;28;20088;-67
2023/01/12 00:39:20;;;;;;;19.42;3.50;;;10.10;99.90;;;;;;5056654;28;20549;-67
2023/01/12 00:47:16;;;;;;;16.63;3.15;;;10.10;99.90;;;;;;5056095;28;20039;-67
2023/01/12 00:49:43;;;;;;;19.00;3.65;;;10.10;99.90;;;;;;5052804;28;20018;-67
2023/01/12 00:52:15;;;;;;;23.90;3.20;;;10.10;99.90;;;;;;5055085;28;20099;-68
2023/01/12 00:54:41;;;;;;;16.88;3.30;;;10.10;99.90;;;;;;5057160;28;20037;-67
2023/01/12 00:57:08;;;;;;;19.77;3.65;;;10.10;99.90;;;;;;5055307;28;20066;-67
2023/01/12 00:59:34;;;;;;;13.63;3.42;;;10.10;99.90;;;;;;5055023;28;20024;-66
2023/01/12 01:02:00;;;;;;;18.70;3.70;;;10.00;99.90;;;;;;5054051;28;20024;-66
2023/01/12 01:04:26;;;;;;;19.42;3.25;;;10.20;99.90;;;;;;5055395;28;20025;-67
2023/01/12 01:06:51;;;;;;;20.05;4.15;;;10.10;99.90;;;;;;5060985;28;20029;-67
2023/01/12 01:09:17;;;;;;;14.93;3.22;;;10.10;99.90;;;;;;5062530;28;20457;-66
2023/01/12 01:11:43;;;;;;;20.08;3.40;;;10.10;99.90;;;;;;5062809;28;20074;-67
2023/01/12 01:14:09;;;;;;;19.98;3.92;;;10.10;99.90;;;;;;5063291;28;20420;-67
2023/01/12 01:16:35;;;;;;;22.67;3.95;;;10.10;99.90;;;;;;5060924;28;20032;-67
2023/01/12 01:19:03;;;;;;;18.10;3.45;;;10.10;99.90;;;;;;5055561;28;20033;-67
2023/01/12 01:21:29;;;;;;;22.10;4.35;;;10.20;99.90;;;;;;5059281;28;20021;-67
2023/01/12 01:23:54;;;;;;;18.95;3.75;;;10.20;99.90;;;;;;5058943;28;20031;-67
2023/01/12 01:26:22;;;;;;;25.38;3.97;;;10.10;99.90;;;;;;5054009;28;20063;-68
2023/01/12 01:28:49;;;;;;;22.15;3.83;;;10.20;99.90;;;;;;5051908;28;20025;-67
2023/01/12 01:31:18;;;;;;;14.25;3.72;;;10.20;99.90;;;;;;5068350;28;20032;-67
2023/01/12 01:33:44;;;;;;;16.98;3.78;;;10.10;99.90;;;;;;5053569;28;20037;-67
2023/01/12 01:36:11;;;;;;;17.35;3.75;;;10.10;99.90;;;;;;5059364;28;20378;-67
2023/01/12 01:38:37;;;;;;;21.15;3.50;;;10.20;99.90;;;;;;5057611;28;20036;-67
2023/01/12 01:41:04;;;;;;;24.77;4.50;;;10.20;99.90;;;;;;5055557;28;20501;-66
2023/01/12 01:43:55;;;;;;;26.83;4.72;;;10.20;99.90;;;;;;5053643;28;20028;-68
2023/01/12 01:46:35;;;;;;;31.27;5.13;;;10.20;99.90;;;;;;5059270;28;20052;-67
2023/01/12 01:49:23;;;;;;;19.60;3.90;;;10.20;99.90;;;;;;5055546;28;20025;-67
2023/01/12 01:51:51;;;;;;;24.40;4.65;;;10.20;99.90;;;;;;5052914;28;20441;-67
2023/01/12 01:54:16;;;;;;;22.85;3.90;;;10.20;99.90;;;;;;5061608;28;20079;-68
2023/01/12 01:56:43;;;;;;;28.80;5.00;;;10.20;99.90;;;;;;5056353;28;20017;-67
2023/01/12 01:59:19;;;;;;;33.45;5.22;;;10.20;99.90;;;;;;5054982;28;20516;-67
2023/01/12 02:01:46;;;;;;;29.95;4.13;;;10.20;99.90;;;;;;5049114;28;20017;-67
2023/01/12 02:04:13;;;;;;;26.42;4.85;;;10.20;99.90;;;;;;5048987;28;20041;-67
2023/01/12 02:06:39;;;;;;;23.65;4.55;;;10.20;99.90;;;;;;5061936;28;20020;-67
2023/01/12 02:09:13;;;;;;;21.70;3.90;;;10.20;99.90;;;;;;5059716;28;20033;-67
2023/01/12 02:17:19;;;;;;;18.90;4.18;;;10.20;99.90;;;;;;5061105;28;20035;-67
2023/01/12 02:20:23;;;;;;;30.67;4.38;;;10.20;99.90;;;;;;5051286;28;20086;-68
2023/01/12 02:23:22;;;;;;;33.08;4.45;;;10.20;99.90;;;;;;5060240;28;20107;-67
2023/01/12 02:26:07;;;;;;;22.25;4.88;;;10.20;99.90;;;;;;5048552;28;20154;-67
2023/01/12 02:29:03;;;;;;;25.58;3.92;;;10.20;99.90;;;;;;5058016;28;20063;-67
2023/01/12 02:31:32;;;;;;;24.48;3.70;;;10.20;99.90;;;;;;5060165;28;20083;-67
2023/01/12 02:34:23;;;;;;;22.35;3.75;;;10.20;99.90;;;;;;5057354;28;20128;-66
2023/01/12 02:36:54;;;;;;;23.65;3.97;;;10.20;99.90;;;;;;5056202;28;20036;-67
2023/01/12 02:39:29;;;;;;;27.63;3.97;;;10.10;99.90;;;;;;5059686;28;20123;-67
2023/01/12 02:45:08;;;;;;;23.45;3.42;;;10.10;99.90;;;;;;5054625;28;20118;-67
2023/01/12 02:47:55;;;;;;;23.98;3.90;;;10.20;99.90;;;;;;5048216;28;20033;-67
2023/01/12 02:50:48;;;;;;;30.60;4.28;;;10.20;99.90;;;;;;5057201;28;20090;-68
2023/01/12 02:53:37;;;;;;;21.83;3.65;;;10.20;99.90;;;;;;5059475;28;20025;-67
2023/01/12 02:56:06;;;;;;;19.42;4.22;;;10.20;99.90;;;;;;5050528;28;20037;-67
2023/01/12 02:58:35;;;;;;;19.48;4.25;;;10.20;99.90;;;;;;5060048;28;20028;-68
2023/01/12 03:01:02;;;;;;;20.67;6.07;;;10.20;99.90;;;;;;5060031;28;20458;-68
2023/01/12 03:03:28;;;;;;;21.75;4.22;;;10.20;99.90;;;;;;5055173;28;20048;-67
2023/01/12 03:05:56;;;;;;;18.88;3.40;;;10.10;99.90;;;;;;5060482;28;20029;-67
2023/01/12 03:08:27;;;;;;;24.70;4.35;;;10.10;99.90;;;;;;5056608;28;20056;-67
2023/01/12 03:11:15;;;;;;;26.30;3.65;;;10.10;99.90;;;;;;5054031;28;20056;-66
2023/01/12 03:13:58;;;;;;;22.45;3.53;;;10.20;99.90;;;;;;5057297;28;20044;-67
2023/01/12 03:16:29;;;;;;;16.33;3.00;;;10.20;99.90;;;;;;5058207;28;20031;-67
2023/01/12 03:19:08;;;;;;;20.25;4.20;;;10.20;99.90;;;;;;5065132;28;20037;-67
2023/01/12 03:21:49;;;;;;;25.13;4.30;;;10.20;99.90;;;;;;5056824;28;20021;-67
2023/01/12 03:24:27;;;;;;;19.33;3.58;;;10.20;99.90;;;;;;5049214;28;20120;-67
2023/01/12 03:26:59;;;;;;;22.73;3.75;;;10.10;99.90;;;;;;5053785;28;20025;-67
2023/01/12 03:29:28;;;;;;;24.63;4.22;;;10.20;99.90;;;;;;5060176;28;20099;-67
2023/01/12 03:31:55;;;;;;;28.73;4.10;;;10.20;99.90;;;;;;5059440;28;20039;-67
2023/01/12 03:34:21;;;;;;;22.70;4.35;;;10.10;99.90;;;;;;5058506;28;20053;-67
2023/01/12 03:36:56;;;;;;;23.08;3.80;;;10.20;99.90;;;;;;5055388;28;20096;-67
2023/01/12 03:39:56;;;;;;;25.45;5.00;;;10.10;99.90;;;;;;5059599;28;20029;-68
2023/01/12 03:42:28;;;;;;;24.15;3.58;;;10.10;99.90;;;;;;5063855;28;20153;-68
2023/01/12 03:45:28;;;;;;;21.77;3.35;;;10.10;99.90;;;;;;5052431;28;20115;-67
2023/01/12 03:47:59;;;;;;;18.77;4.38;;;10.20;99.90;;;;;;5047725;28;20111;-68
2023/01/12 03:50:33;;;;;;;12.05;2.85;;;10.20;99.90;;;;;;5058109;28;20024;-68
2023/01/12 03:53:01;;;;;;;25.30;3.47;;;10.10;99.90;;;;;;5054834;28;20064;-67
2023/01/12 03:55:29;;;;;;;21.30;3.30;;;10.10;99.90;;;;;;5061295;28;20389;-67
2023/01/12 03:57:56;;;;;;;17.10;3.33;;;10.10;99.90;;;;;;5050550;28;20028;-67
2023/01/12 04:00:23;;;;;;;19.17;3.78;;;10.10;99.90;;;;;;5061844;28;20029;-68
2023/01/12 04:02:49;;;;;;;18.17;3.83;;;10.10;99.90;;;;;;5046079;28;20033;-67
2023/01/12 04:05:15;;;;;;;23.33;4.00;;;10.10;99.90;;;;;;5056088;28;20029;-67
2023/01/12 04:07:41;;;;;;;18.92;3.47;;;10.10;99.90;;;;;;5068152;28;20021;-67
2023/01/12 04:10:07;;;;;;;17.42;3.08;;;10.10;99.90;;;;;;5056009;28;20394;-67
2023/01/12 04:12:33;;;;;;;24.95;3.60;;;10.00;99.90;;;;;;5059327;28;20024;-68
2023/01/12 04:14:58;;;;;;;18.92;3.47;;;10.00;99.90;;;;;;5058909;28;20466;-67
2023/01/12 04:17:24;;;;;;;15.27;3.63;;;10.00;99.90;;;;;;5052487;28;20087;-68
2023/01/12 04:19:52;;;;;;;17.85;3.00;;;10.00;99.90;;;;;;5057252;28;20120;-67
2023/01/12 04:25:03;;;;;;;25.45;3.97;;;10.00;99.90;;;;;;5061788;28;20035;-67
2023/01/12 04:27:29;;;;;;;14.15;3.50;;;10.00;99.90;;;;;;5056537;28;20055;-67
2023/01/12 04:29:55;;;;;;;23.98;2.97;;;10.10;99.90;;;;;;5052866;28;20064;-67
2023/01/12 04:32:20;;;;;;;16.48;3.28;;;10.00;99.90;;;;;;5059429;28;20036;-67
2023/01/12 04:34:46;;;;;;;18.92;3.50;;;10.00;99.90;;;;;;5059519;28;20056;-67
2023/01/12 04:37:12;;;;;;;17.85;4.50;;;10.10;99.90;;;;;;5056023;28;20025;-67
2023/01/12 04:39:38;;;;;;;21.73;3.95;;;10.00;99.90;;;;;;5058344;28;20029;-68
2023/01/12 04:42:04;;;;;;;17.98;3.08;;;10.00;99.90;;;;;;5049464;28;20127;-67
2023/01/12 04:44:31;;;;;;;19.42;3.72;;;10.00;99.90;;;;;;5056757;28;20104;-67
2023/01/12 04:46:56;;;;;;;20.13;3.28;;;10.10;99.90;;;;;;5056799;28;20040;-67
2023/01/12 04:49:22;;;;;;;19.13;3.85;;;10.00;99.90;;;;;;5058449;28;20017;-67
2023/01/12 04:51:48;;;;;;;20.17;3.30;;;10.00;99.90;;;;;;5057867;28;20032;-67
2023/01/12 04:54:13;;;;;;;15.88;2.88;;;10.00;99.90;;;;;;5051627;28;20238;-68
2023/01/12 04:56:39;;;;;;;18.58;3.72;;;10.00;99.90;;;;;;5053503;28;20108;-67
2023/01/12 04:59:07;;;;;;;22.63;3.83;;;10.10;99.90;;;;;;5058776;28;20105;-68
2023/01/12 05:01:35;;;;;;;13.90;2.92;;;10.00;99.90;;;;;;5060192;28;20108;-67
2023/01/12 05:04:01;;;;;;;23.73;4.10;;;10.00;99.90;;;;;;5050742;28;20029;-67
2023/01/12 05:06:27;;;;;;;17.33;3.97;;;10.00;99.90;;;;;;5053160;28;20033;-67
2023/01/12 05:11:38;;;;;;;24.80;3.88;;;10.00;99.90;;;;;;5063268;28;20110;-68
2023/01/12 05:14:04;;;;;;;24.55;4.00;;;10.00;99.90;;;;;;5056393;28;20636;-67
2023/01/12 05:16:30;;;;;;;15.07;3.78;;;10.00;99.90;;;;;;5057323;28;20370;-67
2023/01/12 05:18:56;;;;;;;14.63;3.60;;;10.00;99.90;;;;;;5056874;28;20025;-67
2023/01/12 05:21:23;;;;;;;21.15;3.55;;;10.00;99.90;;;;;;5061975;28;20026;-67
2023/01/12 05:23:51;;;;;;;24.30;4.25;;;10.00;99.90;;;;;;5057096;28;20039;-67
2023/01/12 05:26:17;;;;;;;14.90;3.15;;;9.90;99.90;;;;;;5065245;28;20098;-68
2023/01/12 05:28:43;;;;;;;21.08;4.63;;;9.90;99.90;;;;;;5055974;28;20075;-67
2023/01/12 05:31:11;;;;;;;19.63;3.53;;;10.00;99.90;;;;;;5058901;28;20431;-67
2023/01/12 05:33:39;;;;;;;20.75;3.58;;;10.00;99.90;;;;;;5060850;28;20029;-67
2023/01/12 05:36:07;;;;;;;23.55;3.17;;;10.00;99.90;;;;;;5056630;28;20025;-67
2023/01/12 05:38:33;;;;;;;19.10;3.85;;;10.00;99.90;;;;;;5056418;28;20039;-67
2023/01/12 05:41:00;;;;;;;17.27;3.88;;;10.00;99.90;;;;;;5062623;28;20029;-67
2023/01/12 05:44:12;;;;;;;20.63;3.58;;;10.10;99.90;;;;;;5056910;28;20090;-67
2023/01/12 05:46:14;;;;;;;14.55;2.83;;;10.00;99.90;;;;;;5059544;28;20037;-67
2023/01/12 05:48:40;;;;;;;16.67;3.75;;;10.00;99.90;;;;;;5057507;28;20025;-67
2023/01/12 05:51:07;;;;;;;25.95;3.47;;;10.00;99.90;;;;;;5053756;28;20048;-67
2023/01/12 05:53:33;;;;;;;19.45;3.92;;;10.10;99.90;;;;;;5062292;28;20480;-67
2023/01/12 05:56:15;;;;;;;22.83;3.85;;;10.00;99.90;;;;;;5056266;28;20083;-67
2023/01/12 05:58:40;;;;;;;17.70;3.28;;;10.00;99.90;;;;;;5059991;28;20472;-67
2023/01/12 06:01:08;;;;;;;20.98;3.20;;;10.10;99.90;;;;;;5051179;28;20070;-67
2023/01/12 06:03:34;;;;;;;23.35;3.08;;;10.10;99.90;;;;;;5057854;28;20043;-67
2023/01/12 06:06:00;;;;;;;14.43;2.92;;;10.10;99.90;;;;;;5055821;28;20198;-67
2023/01/12 06:08:26;;;;;;;21.48;3.95;;;10.10;99.90;;;;;;5055959;28;20528;-67
2023/01/12 06:10:51;;;;;;;21.55;2.78;;;10.10;99.90;;;;;;5056285;28;20112;-67
2023/01/12 06:16:07;;;;;;;20.77;3.30;;;10.10;99.90;;;;;;5055977;28;20052;-67
2023/01/12 06:18:37;;;;;;;13.77;2.78;;;10.10;99.90;;;;;;5061900;28;20476;-67
2023/01/12 06:21:05;;;;;;;17.70;3.00;;;10.10;99.90;;;;;;5051944;28;20508;-67
2023/01/12 06:23:32;;;;;;;13.02;2.50;;;10.10;99.90;;;;;;5058928;28;20109;-67
2023/01/12 06:26:05;;;;;;;15.95;2.30;;;10.10;99.90;;;;;;5055613;28;20035;-67
2023/01/12 06:28:31;;;;;;;14.70;3.05;;;10.20;99.90;;;;;;5060542;28;20029;-68
2023/01/12 06:31:01;;;;;;;15.18;2.35;;;10.10;99.90;;;;;;5058013;28;20440;-67
2023/01/12 06:33:27;;;;;;;13.23;2.40;;;10.20;99.90;;;;;;5060295;28;20033;-67
2023/01/12 06:35:54;;;;;;;12.23;2.00;;;10.20;99.90;;;;;;5059606;28;20109;-67
2023/01/12 06:38:24;;;;;;;16.17;2.50;;;10.10;99.90;;;;;;5056854;28;20020;-67
2023/01/12 06:40:50;;;;;;;14.77;3.30;;;10.20;99.90;;;;;;5055484;28;20465;-67
2023/01/12 06:43:16;;;;;;;8.77;2.75;;;10.30;99.90;;;;;;5062092;28;20023;-67
2023/01/12 06:45:42;;;;;;;9.63;2.03;;;10.30;99.90;;;;;;5045172;28;20025;-68
2023/01/12 06:48:08;;;;;;;8.80;2.03;;;10.20;99.90;;;;;;5052375;28;20009;-67
2023/01/12 06:50:35;;;;;;;8.27;1.77;;;10.30;99.90;;;;;;5065278;28;20539;-67
2023/01/12 06:53:03;;;;;;;10.55;2.47;;;10.30;99.90;;;;;;5061463;28;20361;-67
2023/01/12 06:55:29;;;;;;;13.27;2.00;;;10.20;99.90;;;;;;5055922;28;20037;-67
2023/01/12 06:57:55;;;;;;;10.25;2.45;;;10.30;99.90;;;;;;5052599;28;20073;-67
2023/01/12 07:00:21;;;;;;;14.40;2.08;;;10.30;99.90;;;;;;5051758;28;20044;-68
2023/01/12 07:02:50;;;;;;;11.30;2.70;;;10.40;99.90;;;;;;5059755;28;20103;-67
2023/01/12 07:05:16;;;;;;;13.25;2.78;;;10.40;99.90;;;;;;5053272;28;20551;-68
2023/01/12 07:07:42;;;;;;;7.80;1.70;;;10.40;99.90;;;;;;5061339;28;20016;-67
2023/01/12 07:10:09;;;;;;;7.97;2.03;;;10.30;99.90;;;;;;5056176;28;20045;-67
2023/01/12 07:12:35;;;;;;;9.75;2.42;;;10.40;99.90;;;;;;5061525;28;20032;-67
2023/01/12 07:15:00;;;;;;;7.15;1.90;;;10.30;99.90;;;;;;5054624;28;20511;-67
2023/01/12 07:17:26;;;;;;;11.60;1.83;;;10.30;99.90;;;;;;5059556;28;20021;-67
2023/01/12 07:19:51;;;;;;;11.73;2.15;;;10.30;99.90;;;;;;5055361;28;20032;-69
2023/01/12 07:22:17;;;;;;;5.13;1.48;;;10.40;99.90;;;;;;5051975;28;20478;-68
2023/01/12 07:24:42;;;;;;;10.40;1.83;;;10.40;99.90;;;;;;5053868;28;20096;-69
2023/01/12 07:27:08;;;;;;;14.25;2.38;;;10.40;99.90;;;;;;5061032;28;20028;-68
2023/01/12 07:29:34;;;;;;;10.52;2.45;;;10.40;99.90;;;;;;5058109;28;20089;-68
2023/01/12 07:32:00;;;;;;;9.45;2.42;;;10.40;99.90;;;;;;5052876;28;20032;-69
2023/01/12 07:34:26;;;;;;;10.65;2.45;;;10.40;99.90;;;;;;5060457;28;20040;-69
2023/01/12 07:36:51;;;;;;;10.02;1.95;;;10.50;99.90;;;;;;5055101;28;20048;-68
2023/01/12 07:39:17;;;;;;;11.15;2.20;;;10.50;99.90;;;;;;5059391;28;20029;-67
2023/01/12 07:44:27;;;;;;;7.55;1.77;;;10.50;99.90;;;;;;5058257;28;20546;-68
2023/01/12 07:46:53;;;;;;;9.82;2.17;;;10.50;99.90;;;;;;5056542;28;20021;-68
2023/01/12 07:49:19;;;;;;;10.50;2.15;;;10.50;99.90;;;;;;5049924;28;20033;-67
2023/01/12 07:51:44;;;;;;;8.98;2.40;;;10.60;99.90;;;;;;5049521;28;20025;-68
2023/01/12 07:54:10;;;;;;;12.93;2.40;;;10.50;99.90;;;;;;5051442;28;20033;-68
2023/01/12 07:56:36;;;;;;;7.80;2.13;;;10.50;99.90;;;;;;5050155;28;20094;-68
2023/01/12 07:59:02;;;;;;;7.93;2.58;;;10.60;99.90;;;;;;5052037;28;20482;-68
2023/01/12 08:01:28;;;;;;;10.10;2.13;;;10.60;99.90;;;;;;5048008;28;20028;-67
2023/01/12 08:03:53;;;;;;;5.32;1.75;;;10.60;99.90;;;;;;5044256;28;20385;-68
2023/01/12 08:06:19;;;;;;;8.25;1.98;;;10.60;99.90;;;;;;5051251;28;20018;-67
2023/01/12 08:08:44;;;;;;;7.22;1.75;;;10.60;99.90;;;;;;5050433;28;20029;-67
2023/01/12 08:11:11;;;;;;;12.13;1.98;;;10.60;99.90;;;;;;5050108;28;20013;-67
2023/01/12 08:13:37;;;;;;;11.73;2.13;;;10.70;99.90;;;;;;5049843;28;20040;-68
2023/01/12 08:16:20;;;;;;;4.30;1.52;;;10.70;99.90;;;;;;5048741;28;20511;-68
2023/01/12 08:18:51;;;;;;;;;;;10.70;99.90;;;;;;5050226;28;20017;-67
2023/01/12 08:21:22;;;;;;;8.05;2.03;;;10.70;99.90;;;;;;5050976;28;19904;-68
2023/01/12 08:23:54;;;;;;;7.43;2.08;;;10.80;99.90;;;;;;5049901;28;20025;-68
2023/01/12 08:26:24;;;;;;;8.70;2.17;;;10.70;99.90;;;;;;5048122;28;20481;-68
2023/01/12 08:28:58;;;;;;;9.02;2.53;;;10.80;99.90;;;;;;5051977;28;20027;-68
2023/01/12 08:31:25;;;;;;;9.73;2.05;;;10.80;99.90;;;;;;5054185;28;20046;-68
2023/01/12 08:33:53;;;;;;;6.60;2.10;;;10.70;99.90;;;;;;5055797;28;20052;-68
2023/01/12 08:36:19;;;;;;;8.65;2.75;;;10.80;99.90;;;;;;5052579;28;20031;-67
2023/01/12 08:38:45;;;;;;;9.80;2.20;;;10.80;99.90;;;;;;5053459;28;20040;-67
2023/01/12 08:44:00;;;;;;;10.45;2.10;;;10.80;99.90;;;;;;5054542;28;20120;-69
2023/01/12 08:46:31;;;;;;;8.13;2.53;;;10.90;99.90;;;;;;5055913;28;20025;-68
2023/01/12 08:48:57;;;;;;;8.25;2.10;;;10.80;99.90;;;;;;5056387;28;20028;-67
2023/01/12 08:51:22;;;;;;;9.18;2.28;;;10.80;99.90;;;;;;5062508;28;20052;-72
2023/01/12 08:53:48;;;;;;;3.65;1.92;;;10.90;99.90;;;;;;5058106;28;20064;-68
2023/01/12 08:56:13;;;;;;;7.63;2.25;;;10.80;99.90;;;;;;5050292;28;20033;-69
2023/01/12 08:58:39;;;;;;;9.70;2.15;;;10.80;99.90;;;;;;5057104;28;20013;-68
2023/01/12 09:01:09;;;;;;;8.32;2.40;;;10.80;99.90;;;;;;5055309;28;20403;-67
2023/01/12 09:03:36;;;;;;;8.75;2.60;;;10.80;99.90;;;;;;5053702;28;20028;-68
2023/01/12 09:06:10;;;;;;;4.70;2.10;;;10.80;99.90;;;;;;5063366;28;20523;-68
2023/01/12 09:08:36;;;;;;;8.35;2.15;;;10.90;99.90;;;;;;5052880;28;20101;-68
2023/01/12 09:11:03;;;;;;;8.63;2.10;;;10.90;99.90;;;;;;5066538;28;20025;-67
2023/01/12 09:13:28;;;;;;;9.32;2.40;;;10.90;99.90;;;;;;5062197;28;20170;-67
2023/01/12 09:15:54;;;;;;;10.98;2.55;;;10.90;99.90;;;;;;5053774;28;20123;-67
2023/01/12 09:18:20;;;;;;;4.38;1.70;;;10.90;99.90;;;;;;5052855;28;20034;-67
2023/01/12 09:20:45;;;;;;;9.95;1.90;;;10.90;99.90;;;;;;5056659;28;20029;-66
2023/01/12 09:23:11;;;;;;;6.85;2.00;;;10.90;99.90;;;;;;5055495;28;20108;-67
2023/01/12 09:25:37;;;;;;;6.28;2.15;;;10.90;99.90;;;;;;5056972;28;20033;-67
2023/01/12 09:28:02;;;;;;;14.15;2.33;;;10.90;99.90;;;;;;5064790;28;20492;-67
2023/01/12 09:30:28;;;;;;;10.40;1.90;;;10.90;99.90;;;;;;5058729;28;20078;-67
2023/01/12 09:32:54;;;;;;;9.10;2.13;;;11.00;99.90;;;;;;5059464;28;20033;-67
2023/01/12 09:35:20;;;;;;;5.80;1.77;;;11.00;99.90;;;;;;5057217;28;20039;-68
2023/01/12 09:37:46;;;;;;;4.20;1.73;;;10.90;99.90;;;;;;5051535;28;20460;-68
2023/01/12 09:40:16;;;;;;;3.83;1.77;;;11.00;99.90;;;;;;5056210;28;20032;-68
2023/01/12 09:48:20;;;;;;;7.20;1.98;;;11.10;99.90;;;;;;5058027;28;20035;-67
2023/01/12 09:51:27;;;;;;;5.57;1.83;;;11.10;99.90;;;;;;5057384;28;20028;-67
2023/01/12 09:53:53;;;;;;;5.40;1.60;;;11.10;99.90;;;;;;5056659;28;20118;-67
2023/01/12 09:56:35;;;;;;;6.95;1.77;;;11.10;99.90;;;;;;5055214;28;20465;-67
2023/01/12 09:59:07;;;;;;;12.15;2.28;;;11.10;99.90;;;;;;5053343;28;20489;-67
2023/01/12 10:01:35;;;;;;;6.38;1.85;;;11.20;99.90;;;;;;5056831;28;20427;-67
2023/01/12 10:04:02;;;;;;;5.28;2.05;;;11.20;99.90;;;;;;5054235;28;20022;-67
2023/01/12 10:06:28;;;;;;;6.68;1.20;;;11.20;99.90;;;;;;5056190;28;20009;-67
2023/01/12 10:09:08;;;;;;;7.53;1.63;;;11.20;99.90;;;;;;5059692;28;20074;-67
2023/01/12 10:11:42;;;;;;;4.97;1.33;;;11.20;99.90;;;;;;5062576;28;20067;-67
2023/01/12 10:14:29;;;;;;;6.38;1.25;;;11.20;99.90;;;;;;5047715;28;20032;-68
2023/01/12 10:17:16;;;;;;;4.05;1.63;;;11.20;99.90;;;;;;5056096;28;20140;-67
2023/01/12 10:19:50;;;;;;;6.03;1.60;;;11.30;99.90;;;;;;5053965;28;20028;-67
2023/01/12 10:22:35;;;;;;;6.78;1.60;;;11.30;99.90;;;;;;5058060;28;20021;-68
2023/01/12 10:25:36;;;;;;;11.38;2.20;;;11.20;99.90;;;;;;5053508;28;20062;-67
2023/01/12 10:28:11;;;;;;;5.45;1.73;;;11.30;99.90;;;;;;5049218;28;20516;-67
2023/01/12 10:30:38;;;;;;;5.97;1.63;;;11.30;99.90;;;;;;5047754;28;20021;-67
2023/01/12 10:33:33;;;;;;;3.22;1.20;;;11.20;99.90;;;;;;5053096;28;20094;-67
2023/01/12 10:36:08;;;;;;;7.43;1.70;;;11.30;99.90;;;;;;5046050;28;20398;-70
2023/01/12 10:38:59;;;;;;;6.50;1.88;;;11.40;99.90;;;;;;5060416;28;20511;-70
2023/01/12 10:41:36;;;;;;;5.97;1.73;;;11.40;99.90;;;;;;5054911;28;20116;-70
2023/01/12 10:44:02;;;;;;;5.82;1.23;;;11.40;99.90;;;;;;5055077;28;20033;-70
2023/01/12 10:46:30;;;;;;;3.97;1.70;;;11.40;99.90;;;;;;5063253;28;20358;-70
2023/01/12 10:49:19;;;;;;;4.13;1.67;;;11.40;99.90;;;;;;5060345;28;20036;-71
2023/01/12 10:51:55;;;;;;;5.32;1.83;;;11.40;99.90;;;;;;5054633;28;20026;-70
2023/01/12 10:54:30;;;;;;;5.00;1.50;;;11.40;99.90;;;;;;5053072;28;20091;-69
2023/01/12 10:57:15;;;;;;;5.28;1.70;;;11.40;99.90;;;;;;5053558;28;20035;-68
2023/01/12 10:59:50;;;;;;;3.88;1.73;;;11.40;99.90;;;;;;5052510;28;20028;-69
2023/01/12 11:02:16;;;;;;;7.05;1.63;;;11.40;99.90;;;;;;5060421;28;20032;-71
2023/01/12 11:04:43;;;;;;;7.70;1.63;;;11.50;99.90;;;;;;5050963;28;20037;-70
2023/01/12 11:07:21;;;;;;;3.88;1.60;;;11.40;99.90;;;;;;5049624;28;20017;-70
2023/01/12 11:09:47;;;;;;;5.32;1.60;;;11.50;99.90;;;;;;5051358;28;20477;-68
2023/01/12 11:12:28;;;;;;;5.43;1.73;;;11.50;99.90;;;;;;5054911;28;20472;-68
2023/01/12 11:15:09;;;;;;;9.07;1.85;;;11.50;99.90;;;;;;5052418;28;20051;-69
2023/01/12 11:17:37;;;;;;;7.82;1.60;;;11.50;99.90;;;;;;5048317;28;20043;-69
2023/01/12 11:20:14;;;;;;;2.88;1.33;;;11.50;99.90;;;;;;5057632;28;20020;-69
2023/01/12 11:22:41;;;;;;;7.82;1.70;;;11.60;99.90;;;;;;5055530;28;20449;-70
2023/01/12 11:25:22;;;;;;;6.03;1.30;;;11.50;99.90;;;;;;5057449;28;20021;-70
2023/01/12 11:28:13;;;;;;;6.20;1.98;;;11.50;99.90;;;;;;5049993;28;20039;-70
2023/01/12 11:30:52;;;;;;;5.18;1.45;;;11.50;99.90;;;;;;5053887;28;20020;-70
2023/01/12 11:33:25;;;;;;;4.80;1.23;;;11.50;99.90;;;;;;5054695;28;20406;-70
2023/01/12 11:36:01;;;;;;;4.47;1.42;;;11.50;99.90;;;;;;5058317;28;20053;-70
2023/01/12 11:38:39;;;;;;;6.22;1.38;;;11.50;99.90;;;;;;5056208;28;20020;-70
2023/01/12 11:41:09;;;;;;;3.03;1.38;;;11.50;99.90;;;;;;5063127;28;20040;-68
2023/01/12 11:43:48;;;;;;;6.43;1.40;;;11.60;99.90;;;;;;5048816;28;20028;-70
2023/01/12 11:46:43;;;;;;;5.03;1.55;;;11.60;99.90;;;;;;5051054;28;20437;-69
2023/01/12 11:49:16;;;;;;;5.43;1.45;;;11.50;99.90;;;;;;5052562;28;20548;-69
2023/01/12 11:51:42;;;;;;;8.02;1.95;;;11.60;99.90;;;;;;5053358;28;20024;-69
2023/01/12 11:54:18;;;;;;;7.00;1.45;;;11.60;99.90;;;;;;5052527;28;20144;-69
2023/01/12 11:56:58;;;;;;;3.90;1.23;;;11.60;99.90;;;;;;5054209;28;20021;-69
2023/01/12 11:59:55;;;;;;;4.82;1.33;;;11.60;99.90;;;;;;5063731;28;20149;-77
2023/01/12 12:02:57;;;;;;;4.07;1.08;;;11.60;99.90;;;;;;5047397;28;20362;-70
2023/01/12 12:05:50;;;;;;;4.57;1.00;;;11.60;99.90;;;;;;5050110;28;20018;-69
2023/01/12 12:09:07;;;;;;;2.88;1.17;;;11.60;99.90;;;;;;5052201;28;20029;-69
2023/01/12 12:11:54;;;;;;;2.53;0.90;;;11.60;99.90;;;;;;5054144;28;20031;-70
2023/01/12 12:14:31;;;;;;;5.15;1.40;;;11.60;99.90;;;;;;5048763;28;20116;-70
2023/01/12 12:17:24;;;;;;;6.13;1.10;;;11.60;99.90;;;;;;5048872;28;20551;-72
2023/01/12 12:20:07;;;;;;;2.22;1.45;;;11.60;99.90;;;;;;5053458;28;20029;-71
2023/01/12 12:22:57;;;;;;;3.00;0.90;;;11.70;99.90;;;;;;5062988;28;20036;-70
2023/01/12 12:25:33;;;;;;;4.15;1.00;;;11.60;99.90;;;;;;5049972;28;20025;-70
2023/01/12 12:28:35;;;;;;;4.00;1.10;;;11.60;99.90;;;;;;5053670;28;20029;-70
2023/01/12 12:31:10;;;;;;;2.05;0.90;;;11.60;99.90;;;;;;5056481;28;20361;-70
2023/01/12 12:33:52;;;;;;;2.90;1.08;;;11.60;99.90;;;;;;5053137;28;20108;-70
2023/01/12 12:36:33;;;;;;;1.67;0.73;;;11.60;99.90;;;;;;5054310;28;20044;-71
2023/01/12 12:39:19;;;;;;;3.25;0.93;;;11.70;99.90;;;;;;5048250;28;20029;-71
2023/01/12 12:45:17;;;;;;;3.35;1.00;;;11.70;99.90;;;;;;5052408;28;20058;-71
2023/01/12 12:47:55;;;;;;;4.28;0.82;;;11.60;99.90;;;;;;5049567;28;20036;-70
2023/01/12 12:50:33;;;;;;;2.13;1.20;;;11.70;99.90;;;;;;5054923;28;20504;-69
2023/01/12 12:53:11;;;;;;;6.07;1.00;;;11.60;99.90;;;;;;5052045;28;20013;-70
2023/01/12 12:55:37;;;;;;;2.25;0.80;;;11.70;99.90;;;;;;5047737;28;20086;-69
2023/01/12 12:58:24;;;;;;;4.20;1.38;;;11.60;99.90;;;;;;5059137;28;20025;-69
2023/01/12 13:00:50;;;;;;;4.15;1.17;;;11.50;99.90;;;;;;5051259;28;20029;-79
2023/01/12 13:03:46;;;;;;;4.00;1.30;;;11.50;99.90;;;;;;5054160;28;20076;-77
2023/01/12 13:06:18;;;;;;;4.32;1.00;;;11.60;99.90;;;;;;5056950;28;20044;-71
2023/01/12 13:08:45;;;;;;;4.07;1.20;;;11.60;99.90;;;;;;5055893;28;20025;-70
2023/01/12 13:11:10;;;;;;;2.50;1.10;;;11.70;99.90;;;;;;5057930;28;20104;-70
2023/01/12 13:13:55;;;;;;;4.13;1.42;;;11.70;99.90;;;;;;5050618;28;20064;-69
2023/01/12 13:16:20;;;;;;;4.47;1.35;;;11.60;99.90;;;;;;5049215;28;20098;-69
2023/01/12 13:18:49;;;;;;;1.95;1.02;;;11.60;99.90;;;;;;5050987;28;20462;-70
2023/01/12 13:21:49;;;;;;;2.10;0.98;;;11.70;99.90;;;;;;5055839;28;20076;-68
2023/01/12 13:24:23;;;;;;;1.40;0.98;;;11.70;99.90;;;;;;5058642;28;20494;-69
2023/01/12 13:26:52;;;;;;;1.98;1.13;;;11.70;99.90;;;;;;5058933;28;20070;-70
2023/01/12 13:29:27;;;;;;;3.25;1.10;;;11.60;99.90;;;;;;5046679;28;20057;-69
2023/01/12 13:32:18;;;;;;;4.43;1.10;;;11.70;99.90;;;;;;5047589;28;20108;-69
2023/01/12 13:34:45;;;;;;;3.60;1.38;;;11.60;99.90;;;;;;5046537;28;20037;-69
2023/01/12 13:37:29;;;;;;;3.80;1.08;;;11.60;99.90;;;;;;5057116;28;20024;-69
2023/01/12 13:39:58;;;;;;;3.47;0.77;;;11.70;99.90;;;;;;5047877;28;20026;-70
2023/01/12 13:45:15;;;;;;;1.73;1.05;;;11.70;99.90;;;;;;5056765;28;20044;-70